createdAt,value
2019-02-08T00:01:54.545Z,91.66
2019-02-08T00:04:24.139Z,92.46
2019-02-08T00:06:53.722Z,91.70
2019-02-08T00:09:23.380Z,95.42
2019-02-08T00:11:53.044Z,93.19
2019-02-08T00:14:22.663Z,94.66
2019-02-08T00:16:52.309Z,94.70
2019-02-08T00:19:22.029Z,95.12
2019-02-08T00:21:51.656Z,96.59
2019-02-08T00:24:21.315Z,98.72
2019-02-08T00:26:51.212Z,100.00
2019-02-08T00:29:20.983Z,100.00
2019-02-08T00:31:50.614Z,100.00
2019-02-08T00:34:20.195Z,98.96
2019-02-08T00:36:49.808Z,95.93
2019-02-08T00:39:19.436Z,93.72
2019-02-08T00:41:49.407Z,96.28
2019-02-08T00:44:19.043Z,94.16
2019-02-08T00:46:48.685Z,90.10
2019-02-08T00:49:18.312Z,92.00
2019-02-08T00:51:47.910Z,92.21
2019-02-08T00:54:17.564Z,91.48
2019-02-08T00:56:47.539Z,92.11
2019-02-08T00:59:17.128Z,91.59
2019-02-08T01:01:46.757Z,90.35
2019-02-08T01:04:16.340Z,90.73
2019-02-08T01:06:45.939Z,90.53
2019-02-08T01:09:15.597Z,90.72
2019-02-08T01:11:45.198Z,93.96
2019-02-08T01:14:14.929Z,95.34
2019-02-08T01:16:44.583Z,91.04
2019-02-08T01:19:14.176Z,93.59
2019-02-08T01:21:43.972Z,98.32
2019-02-08T01:24:13.652Z,100.00
2019-02-08T01:26:43.288Z,100.00
2019-02-08T01:29:12.924Z,100.00
2019-02-08T01:31:42.564Z,100.00
2019-02-08T01:34:12.269Z,99.06
2019-02-08T01:36:41.853Z,96.36
2019-02-08T01:39:11.564Z,100.00
2019-02-08T01:41:41.188Z,97.37
2019-02-08T01:44:10.810Z,98.06
2019-02-08T01:46:40.455Z,97.10
2019-02-08T01:49:10.159Z,97.66
2019-02-08T01:51:39.752Z,98.97
2019-02-08T01:54:09.414Z,100.00
2019-02-08T01:56:38.993Z,100.00
2019-02-08T01:59:08.702Z,100.00
2019-02-08T02:01:38.453Z,100.00
2019-02-08T02:04:08.188Z,100.00
2019-02-08T02:06:37.782Z,100.00
2019-02-08T02:09:09.333Z,100.00
2019-02-08T02:11:38.915Z,100.00
2019-02-08T02:14:08.513Z,100.00
2019-02-08T02:16:38.154Z,100.00
2019-02-08T02:19:08.064Z,100.00
2019-02-08T02:21:37.661Z,100.00
2019-02-08T02:24:07.338Z,100.00
2019-02-08T02:26:36.948Z,100.00
2019-02-08T02:29:06.546Z,100.00
2019-02-08T02:31:36.220Z,100.00
2019-02-08T02:34:06.000Z,100.00
2019-02-08T02:36:35.579Z,100.00
2019-02-08T02:39:08.855Z,100.00
2019-02-08T02:41:38.482Z,100.00
2019-02-08T02:44:08.214Z,100.00
2019-02-08T02:46:37.936Z,100.00
2019-02-08T02:49:07.546Z,100.00
2019-02-08T02:51:37.149Z,100.00
2019-02-08T02:54:06.982Z,100.00
2019-02-08T02:56:36.613Z,100.00
2019-02-08T02:59:06.941Z,100.00
2019-02-08T03:01:36.727Z,100.00
2019-02-08T03:04:06.637Z,100.00
2019-02-08T03:06:36.230Z,100.00
2019-02-08T03:09:09.622Z,100.00
2019-02-08T03:11:39.235Z,100.00
2019-02-08T03:14:08.826Z,100.00
2019-02-08T03:16:38.456Z,100.00
2019-02-08T03:19:08.055Z,100.00
2019-02-08T03:21:37.680Z,100.00
2019-02-08T03:24:12.910Z,100.00
2019-02-08T03:26:38.759Z,100.00
2019-02-08T03:29:08.455Z,100.00
2019-02-08T03:31:38.105Z,100.00
2019-02-08T03:34:07.701Z,100.00
2019-02-08T03:36:37.399Z,100.00
2019-02-08T03:39:09.518Z,100.00
2019-02-08T03:41:39.124Z,100.00
2019-02-08T03:44:08.847Z,100.00
2019-02-08T03:46:38.503Z,100.00
2019-02-08T03:49:08.208Z,100.00
2019-02-08T03:51:37.809Z,100.00
2019-02-08T03:54:07.547Z,100.00
2019-02-08T03:56:37.148Z,100.00
2019-02-08T03:59:06.975Z,100.00
2019-02-08T04:01:36.604Z,100.00
2019-02-08T04:04:16.738Z,100.00
2019-02-08T04:06:46.495Z,100.00
2019-02-08T04:09:16.074Z,100.00
2019-02-08T04:11:45.778Z,100.00
2019-02-08T04:14:15.417Z,100.00
2019-02-08T04:16:45.010Z,100.00
2019-02-08T04:19:14.656Z,100.00
2019-02-08T04:21:44.297Z,100.00
2019-02-08T04:24:13.872Z,100.00
2019-02-08T04:26:43.494Z,100.00
2019-02-08T04:29:13.196Z,100.00
2019-02-08T04:31:43.689Z,100.00
2019-02-08T04:34:13.316Z,100.00
2019-02-08T04:36:43.004Z,100.00
2019-02-08T04:39:12.724Z,100.00
2019-02-08T04:41:42.314Z,100.00
2019-02-08T04:44:11.987Z,100.00
2019-02-08T04:46:41.598Z,99.61
2019-02-08T04:49:11.200Z,99.56
2019-02-08T04:51:40.903Z,100.00
2019-02-08T04:54:10.634Z,99.00
2019-02-08T04:56:40.256Z,94.60
2019-02-08T04:59:09.940Z,88.67
2019-02-08T05:01:39.567Z,84.56
2019-02-08T05:04:09.713Z,99.92
2019-02-08T05:06:39.360Z,100.00
2019-02-08T05:09:09.586Z,100.00
2019-02-08T05:11:39.236Z,97.92
2019-02-08T05:14:08.903Z,91.91
2019-02-08T05:16:38.486Z,93.26
2019-02-08T05:19:08.277Z,90.53
2019-02-08T05:21:37.958Z,86.62
2019-02-08T05:24:07.565Z,84.64
2019-02-08T05:26:37.178Z,83.37
2019-02-08T05:29:06.835Z,81.27
2019-02-08T05:31:36.423Z,96.35
2019-02-08T05:34:06.562Z,95.38
2019-02-08T05:36:36.203Z,98.01
2019-02-08T05:39:10.071Z,99.98
2019-02-08T05:41:39.841Z,98.88
2019-02-08T05:44:09.502Z,97.28
2019-02-08T05:46:39.122Z,97.32
2019-02-08T05:49:08.717Z,100.00
2019-02-08T05:51:38.420Z,93.59
2019-02-08T05:54:08.065Z,97.05
2019-02-08T05:56:37.791Z,100.00
2019-02-08T05:59:07.530Z,100.00
2019-02-08T06:01:37.134Z,100.00
2019-02-08T06:04:07.000Z,100.00
2019-02-08T06:06:36.653Z,100.00
2019-02-08T06:09:09.502Z,100.00
2019-02-08T06:11:39.124Z,100.00
2019-02-08T06:14:09.098Z,100.00
2019-02-08T06:16:38.734Z,100.00
2019-02-08T06:19:08.793Z,100.00
2019-02-08T06:21:38.470Z,100.00
2019-02-08T06:24:08.089Z,100.00
2019-02-08T06:26:37.742Z,100.00
2019-02-08T06:29:07.745Z,100.00
2019-02-08T06:31:37.383Z,100.00
2019-02-08T06:34:07.112Z,99.14
2019-02-08T06:36:36.900Z,100.00
2019-02-08T06:39:09.419Z,100.00
2019-02-08T06:41:39.069Z,100.00
2019-02-08T06:44:08.989Z,100.00
2019-02-08T06:46:38.761Z,100.00
2019-02-08T06:49:08.488Z,100.00
2019-02-08T06:51:38.171Z,100.00
2019-02-08T06:54:07.888Z,100.00
2019-02-08T06:57:02.265Z,96.51
2019-02-08T06:59:50.955Z,95.36
2019-02-08T07:02:30.426Z,93.33
2019-02-08T07:05:27.723Z,92.22
2019-02-08T07:08:28.252Z,94.10
2019-02-08T07:11:15.257Z,85.87
2019-02-08T07:14:02.237Z,92.05
2019-02-08T07:16:46.885Z,100.00
2019-02-08T07:19:47.664Z,100.00
2019-02-08T07:22:45.508Z,99.91
2019-02-08T07:25:36.372Z,97.28
2019-02-08T07:28:24.855Z,86.95
2019-02-08T07:31:08.246Z,82.66
2019-02-08T07:33:57.336Z,84.71
2019-02-08T07:37:04.435Z,88.84
2019-02-08T07:40:34.682Z,83.21
2019-02-08T07:43:27.398Z,80.24
2019-02-08T07:46:19.571Z,80.69
2019-02-08T07:49:18.530Z,80.10
2019-02-08T07:52:15.741Z,74.80
2019-02-08T07:55:05.106Z,68.62
2019-02-08T07:58:00.376Z,73.14
2019-02-08T08:00:54.283Z,72.49
2019-02-08T08:04:01.528Z,65.38
2019-02-08T08:06:48.743Z,64.14
2019-02-08T08:09:37.971Z,65.73
2019-02-08T08:12:33.209Z,67.89
2019-02-08T08:15:25.288Z,66.76
2019-02-08T08:18:25.184Z,68.26
2019-02-08T08:21:18.677Z,66.32
2019-02-08T08:24:25.073Z,65.93
2019-02-08T08:27:29.892Z,63.60
2019-02-08T08:30:21.432Z,71.57
2019-02-08T08:33:19.410Z,68.51
2019-02-08T08:36:12.288Z,64.78
2019-02-08T08:39:47.029Z,68.21
2019-02-08T08:42:48.367Z,64.71
2019-02-08T08:45:52.428Z,67.03
2019-02-08T08:48:58.557Z,68.00
2019-02-08T08:52:06.210Z,68.76
2019-02-08T08:55:02.489Z,66.60
2019-02-08T08:58:26.741Z,63.51
2019-02-08T09:01:37.040Z,88.82
2019-02-08T09:04:41.812Z,72.98
2019-02-08T09:07:41.912Z,64.83
2019-02-08T09:10:54.747Z,66.10
2019-02-08T09:14:08.771Z,67.74
2019-02-08T09:17:13.833Z,64.06
2019-02-08T09:20:12.726Z,63.56
2019-02-08T09:23:28.772Z,63.11
2019-02-08T09:26:44.070Z,62.96
2019-02-08T09:30:06.965Z,67.48
2019-02-08T09:33:09.145Z,62.52
2019-02-08T09:36:08.927Z,60.43
2019-02-08T09:39:03.134Z,61.46
2019-02-08T09:42:18.951Z,64.66
2019-02-08T09:45:17.336Z,62.25
2019-02-08T09:48:27.637Z,63.21
2019-02-08T09:51:28.891Z,61.56
2019-02-08T09:54:28.432Z,68.61
2019-02-08T09:57:33.267Z,69.16
2019-02-08T10:00:49.433Z,70.87
2019-02-08T10:03:53.858Z,68.22
2019-02-08T10:07:02.861Z,69.37
2019-02-08T10:10:11.965Z,62.79
2019-02-08T10:13:18.042Z,62.46
2019-02-08T10:16:35.864Z,60.23
2019-02-08T10:20:07.427Z,60.61
2019-02-08T10:23:23.460Z,61.15
2019-02-08T10:26:47.423Z,60.95
2019-02-08T10:30:08.621Z,62.12
2019-02-08T10:33:25.068Z,59.67
2019-02-08T10:36:53.892Z,61.58
2019-02-08T10:40:25.151Z,58.85
2019-02-08T10:43:32.525Z,61.73
2019-02-08T10:46:57.647Z,63.29
2019-02-08T10:50:03.437Z,58.93
2019-02-08T10:53:18.180Z,61.42
2019-02-08T10:56:42.350Z,68.47
2019-02-08T10:59:59.377Z,70.60
2019-02-08T11:03:13.606Z,70.15
2019-02-08T11:06:33.298Z,65.87
2019-02-08T11:09:40.970Z,70.23
2019-02-08T11:12:55.765Z,65.89
2019-02-08T11:16:08.126Z,71.50
2019-02-08T11:19:16.289Z,71.27
2019-02-08T11:21:46.846Z,70.20
2019-02-08T11:24:18.020Z,70.13
2019-02-08T11:26:48.137Z,64.57
2019-02-08T11:29:17.799Z,67.47
2019-02-08T11:31:47.532Z,69.46
2019-02-08T11:34:17.194Z,70.21
2019-02-08T11:36:47.151Z,77.11
2019-02-08T11:39:18.740Z,67.36
2019-02-08T11:41:49.864Z,67.04
2019-02-08T11:44:21.359Z,63.62
2019-02-08T11:46:51.203Z,67.62
2019-02-08T11:49:20.903Z,68.13
2019-02-08T11:51:50.559Z,66.41
2019-02-08T11:54:20.445Z,65.46
2019-02-08T11:56:50.233Z,61.89
2019-02-08T11:59:19.960Z,60.48
2019-02-08T12:01:51.106Z,64.00
2019-02-08T12:04:21.343Z,70.33
2019-02-08T12:06:51.305Z,62.91
2019-02-08T12:09:20.891Z,57.14
2019-02-08T12:11:50.549Z,63.15
2019-02-08T12:14:20.214Z,65.58
2019-02-08T12:16:49.952Z,58.89
2019-02-08T12:19:19.602Z,61.19
2019-02-08T12:21:49.480Z,57.92
2019-02-08T12:24:19.067Z,58.81
2019-02-08T12:26:48.683Z,56.57
2019-02-08T12:29:18.511Z,60.48
2019-02-08T12:31:48.104Z,59.11
2019-02-08T12:34:17.748Z,60.11
2019-02-08T12:36:47.384Z,58.51
2019-02-08T12:39:17.083Z,57.83
2019-02-08T12:41:46.782Z,55.52
2019-02-08T12:44:16.587Z,55.16
2019-02-08T12:46:46.303Z,58.05
2019-02-08T12:49:15.934Z,58.93
2019-02-08T12:51:45.711Z,59.87
2019-02-08T12:54:15.335Z,55.82
2019-02-08T12:56:45.798Z,55.36
2019-02-08T12:59:15.599Z,59.54
2019-02-08T13:01:45.318Z,57.77
2019-02-08T13:04:14.942Z,55.90
2019-02-08T13:06:44.790Z,56.80
2019-02-08T13:09:14.426Z,59.06
2019-02-08T13:11:44.154Z,59.46
2019-02-08T13:14:13.925Z,59.35
2019-02-08T13:16:43.571Z,60.33
2019-02-08T13:19:13.375Z,58.30
2019-02-08T13:21:43.101Z,59.93
2019-02-08T13:24:12.743Z,57.26
2019-02-08T13:26:42.537Z,59.44
2019-02-08T13:33:24.750Z,56.74
2019-02-08T13:35:50.196Z,95.68
2019-02-08T13:38:19.829Z,95.05
2019-02-08T13:40:49.594Z,92.17
2019-02-08T13:43:20.288Z,86.14
2019-02-08T13:45:50.063Z,92.25
2019-02-08T13:48:20.017Z,81.24
2019-02-08T13:50:50.176Z,77.23
2019-02-08T13:53:21.225Z,79.25
2019-02-08T13:55:50.889Z,72.62
2019-02-08T13:58:20.655Z,76.63
2019-02-08T14:00:50.335Z,78.87
2019-02-08T14:03:21.037Z,80.20
2019-02-08T14:05:50.731Z,78.24
2019-02-08T14:08:22.031Z,74.36
2019-02-08T14:10:51.898Z,74.54
2019-02-08T14:13:21.639Z,76.63
2019-02-08T14:15:51.366Z,76.41
2019-02-08T14:18:21.001Z,76.84
2019-02-08T14:20:50.819Z,77.61
2019-02-08T14:23:20.440Z,73.88
2019-02-08T14:25:50.238Z,75.18
2019-02-08T14:28:19.900Z,78.56
2019-02-08T14:30:49.608Z,76.41
2019-02-08T14:33:19.328Z,71.73
2019-02-08T14:35:48.993Z,74.81
2019-02-08T14:38:21.489Z,71.86
2019-02-08T14:40:51.296Z,75.61
2019-02-08T14:43:21.126Z,73.83
2019-02-08T14:45:50.774Z,74.27
2019-02-08T14:48:20.545Z,74.86
2019-02-08T14:50:50.180Z,75.31
2019-02-08T14:53:19.767Z,74.34
2019-02-08T14:55:49.465Z,74.93
2019-02-08T14:58:19.203Z,73.99
2019-02-08T15:00:48.817Z,75.35
2019-02-08T15:03:18.539Z,75.84
2019-02-08T15:05:48.365Z,73.99
2019-02-08T15:08:17.944Z,76.27
2019-02-08T15:10:48.815Z,74.62
2019-02-08T15:13:18.493Z,73.43
2019-02-08T15:15:48.218Z,77.22
2019-02-08T15:18:18.785Z,70.58
2019-02-08T15:20:48.507Z,74.39
2019-02-08T15:23:18.230Z,75.79
2019-02-08T15:25:47.906Z,75.74
2019-02-08T15:28:17.580Z,75.60
2019-02-08T15:30:47.277Z,74.98
2019-02-08T15:33:17.278Z,76.82
2019-02-08T15:35:46.907Z,75.66
2019-02-08T15:38:16.509Z,76.52
2019-02-08T15:40:48.669Z,75.00
2019-02-08T15:43:20.075Z,75.67
2019-02-08T15:45:55.609Z,77.09
2019-02-08T15:48:25.321Z,75.48
2019-02-08T15:50:55.061Z,76.12
2019-02-08T15:53:25.083Z,74.17
2019-02-08T15:55:58.268Z,75.69
2019-02-08T15:58:27.867Z,74.19
2019-02-08T16:00:57.489Z,78.71
2019-02-08T16:03:27.090Z,66.47
2019-02-08T16:05:56.909Z,67.31
2019-02-08T16:08:26.567Z,67.99
2019-02-08T16:10:56.203Z,69.34
2019-02-08T16:13:25.798Z,70.02
2019-02-08T16:15:55.585Z,70.17
2019-02-08T16:18:25.355Z,68.75
2019-02-08T16:20:54.985Z,70.54
2019-02-08T16:23:24.772Z,71.02
2019-02-08T16:25:54.439Z,69.65
2019-02-08T16:28:24.045Z,71.09
2019-02-08T16:30:53.845Z,71.70
2019-02-08T16:33:23.502Z,72.75
2019-02-08T16:35:53.123Z,72.78
2019-02-08T16:38:22.911Z,73.62
2019-02-08T16:40:52.759Z,74.12
2019-02-08T16:43:22.481Z,75.06
2019-02-08T16:45:52.243Z,75.63
2019-02-08T16:48:22.122Z,76.01
2019-02-08T16:50:51.946Z,75.70
2019-02-08T16:53:21.565Z,75.10
2019-02-08T16:55:51.309Z,74.61
2019-02-08T16:58:20.982Z,73.54
2019-02-08T17:00:50.597Z,74.02
2019-02-08T17:03:20.249Z,73.87
2019-02-08T17:05:49.913Z,73.78
2019-02-08T17:08:19.496Z,74.43
2019-02-08T17:10:49.184Z,75.27
2019-02-08T17:13:18.812Z,74.89
2019-02-08T17:15:48.478Z,74.70
2019-02-08T17:18:18.173Z,76.10
2019-02-08T17:20:48.375Z,76.59
2019-02-08T17:23:18.111Z,76.82
2019-02-08T17:25:47.913Z,75.77
2019-02-08T17:28:17.555Z,75.10
2019-02-08T17:30:47.188Z,74.11
2019-02-08T17:33:16.839Z,71.60
2019-02-08T17:35:46.481Z,71.74
2019-02-08T17:38:16.185Z,72.20
2019-02-08T17:40:47.053Z,71.52
2019-02-08T17:43:16.904Z,74.49
2019-02-08T17:45:46.708Z,71.26
2019-02-08T17:48:16.875Z,72.90
2019-02-08T17:50:46.792Z,72.09
2019-02-08T17:53:16.488Z,72.31
2019-02-08T17:55:46.272Z,72.58
2019-02-08T17:58:15.967Z,72.79
2019-02-08T18:00:56.861Z,73.87
2019-02-08T18:03:26.564Z,72.33
2019-02-08T18:05:56.326Z,70.37
2019-02-08T18:08:25.982Z,70.59
2019-02-08T18:10:55.640Z,70.28
2019-02-08T18:13:25.311Z,70.98
2019-02-08T18:15:54.903Z,71.78
2019-02-08T18:18:26.843Z,71.63
2019-02-08T18:20:59.163Z,70.83
2019-02-08T18:23:28.775Z,69.13
2019-02-08T18:25:58.517Z,68.42
2019-02-08T18:28:28.144Z,68.24
2019-02-08T18:30:57.800Z,67.77
2019-02-08T18:33:27.480Z,67.13
2019-02-08T18:35:57.126Z,66.38
2019-02-08T18:38:26.789Z,67.84
2019-02-08T18:40:56.479Z,67.51
2019-02-08T18:43:26.108Z,68.54
2019-02-08T18:45:55.722Z,68.70
2019-02-08T18:48:25.394Z,68.75
2019-02-08T18:50:55.325Z,68.85
2019-02-08T18:53:24.974Z,67.83
2019-02-08T18:55:54.654Z,67.63
2019-02-08T18:58:24.273Z,67.38
2019-02-08T19:00:54.113Z,68.14
2019-02-08T19:03:24.292Z,68.83
2019-02-08T19:05:53.875Z,68.45
2019-02-08T19:08:23.483Z,67.83
2019-02-08T19:10:53.266Z,69.85
2019-02-08T19:13:22.958Z,76.62
2019-02-08T19:15:52.754Z,79.34
2019-02-08T19:18:22.545Z,81.63
2019-02-08T19:20:52.246Z,80.67
2019-02-08T19:23:21.888Z,84.00
2019-02-08T19:25:51.576Z,84.83
2019-02-08T19:28:26.268Z,83.23
2019-02-08T19:30:52.610Z,78.94
2019-02-08T19:33:22.278Z,82.33
2019-02-08T19:35:51.949Z,82.04
2019-02-08T19:38:21.579Z,78.57
2019-02-08T19:40:51.270Z,79.69
2019-02-08T19:43:20.922Z,81.10
2019-02-08T19:45:50.676Z,78.96
2019-02-08T19:48:20.847Z,79.43
2019-02-08T19:50:50.525Z,78.22
2019-02-08T19:53:20.136Z,78.04
2019-02-08T19:55:49.779Z,78.36
2019-02-08T19:58:19.411Z,80.33
2019-02-08T20:00:49.163Z,75.71
2019-02-08T20:03:18.816Z,81.35
2019-02-08T20:05:48.503Z,77.46
2019-02-08T20:08:18.357Z,74.73
2019-02-08T20:10:49.175Z,71.76
2019-02-08T20:13:19.007Z,72.13
2019-02-08T20:15:48.934Z,74.55
2019-02-08T20:18:18.572Z,76.04
2019-02-08T20:20:48.176Z,77.10
2019-02-08T20:23:17.794Z,77.26
2019-02-08T20:25:47.485Z,76.76
2019-02-08T20:28:17.146Z,76.25
2019-02-08T20:30:46.932Z,77.48
2019-02-08T20:33:16.622Z,79.09
2019-02-08T20:35:46.224Z,79.72
2019-02-08T20:38:15.845Z,81.61
2019-02-08T20:40:47.957Z,78.75
2019-02-08T20:43:17.566Z,77.52
2019-02-08T20:45:47.174Z,79.32
2019-02-08T20:48:19.090Z,79.34
2019-02-08T20:50:49.113Z,80.08
2019-02-08T20:53:19.100Z,80.79
2019-02-08T20:55:48.947Z,82.28
2019-02-08T20:58:18.772Z,81.99
2019-02-08T21:00:51.804Z,80.52
2019-02-08T21:03:24.288Z,78.80
2019-02-08T21:05:54.195Z,78.21
2019-02-08T21:08:24.197Z,79.98
2019-02-08T21:10:53.953Z,80.44
2019-02-08T21:13:23.616Z,86.16
2019-02-08T21:15:53.265Z,87.30
2019-02-08T21:18:22.925Z,91.85
2019-02-08T21:20:52.625Z,90.86
2019-02-08T21:23:23.165Z,94.19
2019-02-08T21:25:55.117Z,92.65
2019-02-08T21:28:24.768Z,92.89
2019-02-08T21:30:54.495Z,97.75
2019-02-08T21:33:24.127Z,96.90
2019-02-08T21:35:53.726Z,99.49
2019-02-08T21:38:23.368Z,98.73
2019-02-08T21:40:53.050Z,100.00
2019-02-08T21:43:22.682Z,100.00
2019-02-08T21:45:52.386Z,100.00
2019-02-08T21:48:22.066Z,100.00
2019-02-08T21:50:51.698Z,100.00
2019-02-08T21:53:21.344Z,100.00
2019-02-08T21:55:51.016Z,100.00
2019-02-08T21:58:20.637Z,100.00
2019-02-08T22:00:50.338Z,100.00
2019-02-08T22:03:20.020Z,100.00
2019-02-08T22:05:52.747Z,100.00
2019-02-08T22:08:22.395Z,100.00
2019-02-08T22:10:52.158Z,100.00
2019-02-08T22:13:21.958Z,100.00
2019-02-08T22:15:51.676Z,100.00
2019-02-08T22:18:21.446Z,100.00
2019-02-08T22:20:51.119Z,100.00
2019-02-08T22:23:20.740Z,100.00
2019-02-08T22:25:50.453Z,100.00
2019-02-08T22:28:20.228Z,100.00
2019-02-08T22:30:49.838Z,100.00
2019-02-08T22:33:19.541Z,100.00
2019-02-08T22:35:49.150Z,100.00
2019-02-08T22:38:18.864Z,100.00
2019-02-08T22:40:48.565Z,100.00
2019-02-08T22:43:18.326Z,100.00
2019-02-08T22:45:48.097Z,100.00
2019-02-08T22:48:17.777Z,100.00
2019-02-08T22:50:47.506Z,100.00
2019-02-08T22:53:17.215Z,100.00
2019-02-08T22:55:46.922Z,100.00
2019-02-08T22:58:16.580Z,100.00
2019-02-08T23:01:25.055Z,100.00
2019-02-08T23:03:58.693Z,100.00
2019-02-08T23:06:28.395Z,100.00
2019-02-08T23:08:58.123Z,100.00
2019-02-08T23:11:28.094Z,100.00
2019-02-08T23:13:57.909Z,100.00
2019-02-08T23:16:27.674Z,100.00
2019-02-08T23:18:57.298Z,100.00
2019-02-08T23:21:27.059Z,100.00
2019-02-08T23:23:56.789Z,100.00
2019-02-08T23:26:26.396Z,100.00
2019-02-08T23:28:56.075Z,100.00
2019-02-08T23:31:25.723Z,100.00
2019-02-08T23:33:55.370Z,100.00
2019-02-08T23:36:25.224Z,100.00
2019-02-08T23:38:54.841Z,100.00
2019-02-08T23:41:24.534Z,100.00
2019-02-08T23:43:54.212Z,100.00
2019-02-08T23:46:23.962Z,100.00
2019-02-08T23:48:53.620Z,100.00
2019-02-08T23:51:23.256Z,100.00
2019-02-08T23:53:52.928Z,100.00
2019-02-08T23:56:22.526Z,100.00
2019-02-08T23:58:52.194Z,100.00
